KVGT/VGT METAR and TAF weather

Enter ICAO airport designator
Station Type Date Time Source
KVGT METAR 2021/05/14 22:53 UTC NOAA

KVGT 142253Z 12013G16KT 10SM CLR 37/M07 A2970 RMK AO2 SLP045 T03671067


Station Type Date Time Source
KVGT Decoded METAR 2021/05/14 22:53 UTC NOAA

NORTH LAS VEGAS, NV, United States (KVGT) 36-12N 115-11W
May 14, 2021 - 06:53 PM EDT / 2021.05.14 2253 UTC
Wind: from the ESE (120 degrees) at 15 MPH (13 KT) gusting to 18 MPH (16 KT):0
Visibility: 10 mile(s):0
Sky conditions: clear
Temperature: 98.1 F (36.7 C)
Dew Point: 19.9 F (-6.7 C)
Relative Humidity: 5%
Pressure (altimeter): 29.7 in. Hg (1005 hPa)
ob: KVGT 142253Z 12013G16KT 10SM CLR 37/M07 A2970 RMK AO2 SLP045 T03671067
cycle: 23

Station Type Date Time Source
KVGT TAF 2021/05/14 18:22 UTC NOAA

TAF KVGT 141720Z 1418/1518 15007KT P6SM SKC
FM142100 15011G20KT P6SM SKC
FM150000 20011G20KT P6SM SKC
FM151100 20020G28KT P6SM FEW250

Example: see airport list